createdAt,value
2023-01-21T00:02:17.675Z,16.03
2023-01-21T00:04:47.196Z,16.00
2023-01-21T00:07:15.855Z,15.98
2023-01-21T00:09:44.822Z,15.96
2023-01-21T00:12:13.567Z,15.94
2023-01-21T00:14:42.782Z,15.92
2023-01-21T00:17:11.449Z,15.91
2023-01-21T00:19:40.564Z,15.89
2023-01-21T00:22:09.443Z,15.88
2023-01-21T00:24:38.525Z,15.84
2023-01-21T00:27:07.237Z,15.84
2023-01-21T00:29:36.306Z,15.83
2023-01-21T00:32:05.287Z,15.79
2023-01-21T00:34:34.316Z,15.78
2023-01-21T00:37:02.989Z,15.75
2023-01-21T00:39:32.207Z,15.73
2023-01-21T00:42:01.656Z,15.72
2023-01-21T00:44:30.804Z,15.69
2023-01-21T00:46:59.477Z,15.67
2023-01-21T00:49:28.510Z,15.65
2023-01-21T00:51:57.976Z,15.63
2023-01-21T00:54:27.039Z,15.62
2023-01-21T00:56:55.968Z,15.59
2023-01-21T00:59:27.596Z,15.57
2023-01-21T01:01:56.279Z,15.55
2023-01-21T01:04:25.355Z,15.54
2023-01-21T01:06:54.090Z,15.53
2023-01-21T01:09:23.110Z,15.46
2023-01-21T01:11:52.854Z,15.48
2023-01-21T01:14:23.249Z,15.48
2023-01-21T01:16:51.905Z,15.45
2023-01-21T01:19:20.957Z,15.42
2023-01-21T01:21:49.645Z,15.40
2023-01-21T01:24:18.717Z,15.40
2023-01-21T01:26:47.415Z,15.37
2023-01-21T01:29:16.507Z,15.36
2023-01-21T01:31:45.292Z,15.34
2023-01-21T01:34:14.112Z,15.33
2023-01-21T01:36:42.948Z,15.33
2023-01-21T01:39:12.037Z,15.30
2023-01-21T01:41:41.007Z,15.30
2023-01-21T01:44:48.538Z,15.28
2023-01-21T01:47:17.176Z,15.26
2023-01-21T01:49:46.189Z,15.24
2023-01-21T01:52:14.846Z,15.24
2023-01-21T01:54:48.544Z,15.22
2023-01-21T01:57:19.457Z,15.20
2023-01-21T01:59:48.318Z,15.13
2023-01-21T02:02:18.891Z,15.14
2023-01-21T02:05:00.897Z,15.16
2023-01-21T02:07:30.817Z,15.11
2023-01-21T02:10:00.841Z,15.13
2023-01-21T02:12:29.386Z,15.10
2023-01-21T02:14:58.237Z,15.01
2023-01-21T02:17:44.128Z,15.07
2023-01-21T02:20:53.625Z,15.08
2023-01-21T02:24:11.976Z,15.05
2023-01-21T02:27:17.278Z,15.03
2023-01-21T02:30:13.063Z,15.03
2023-01-21T02:33:25.448Z,14.99
2023-01-21T02:36:16.255Z,14.99
2023-01-21T02:39:04.160Z,14.96
2023-01-21T02:42:06.986Z,14.96
2023-01-21T02:45:27.886Z,14.94
2023-01-21T02:48:23.201Z,14.93
2023-01-21T02:50:53.687Z,14.89
2023-01-21T02:53:30.233Z,14.89
2023-01-21T02:56:20.905Z,14.88
2023-01-21T02:59:01.200Z,14.79
2023-01-21T03:02:06.180Z,14.84
2023-01-21T03:04:53.787Z,14.82
2023-01-21T03:07:29.476Z,14.75
2023-01-21T03:10:09.106Z,14.74
2023-01-21T03:13:04.895Z,14.71
2023-01-21T03:16:00.731Z,14.79
2023-01-21T03:18:38.759Z,14.78
2023-01-21T03:21:11.114Z,14.76
2023-01-21T03:23:41.784Z,14.75
2023-01-21T03:26:11.236Z,14.73
2023-01-21T03:28:46.646Z,14.71
2023-01-21T03:31:34.877Z,14.70
2023-01-21T03:34:07.283Z,14.68
2023-01-21T03:37:17.547Z,14.68
2023-01-21T03:40:19.582Z,14.65
2023-01-21T03:42:50.980Z,14.64
2023-01-21T03:45:28.249Z,14.63
2023-01-21T03:47:59.937Z,14.61
2023-01-21T03:50:35.968Z,14.57
2023-01-21T03:53:04.754Z,14.58
2023-01-21T03:55:36.730Z,14.52
2023-01-21T03:58:05.294Z,14.58
2023-01-21T04:00:34.179Z,14.57
2023-01-21T04:03:02.968Z,14.55
2023-01-21T04:05:32.694Z,14.53
2023-01-21T04:08:01.249Z,14.54
2023-01-21T04:10:30.144Z,14.49
2023-01-21T04:12:58.711Z,14.49
2023-01-21T04:15:27.794Z,14.50
2023-01-21T04:17:56.364Z,14.51
2023-01-21T04:20:26.329Z,14.51
2023-01-21T04:22:54.894Z,14.58
2023-01-21T04:25:23.707Z,14.60
2023-01-21T04:27:52.284Z,14.70
2023-01-21T04:30:22.194Z,14.80
2023-01-21T04:32:50.924Z,14.92
2023-01-21T04:35:19.784Z,14.97
2023-01-21T04:37:48.350Z,15.07
2023-01-21T04:40:17.990Z,15.14
2023-01-21T04:42:46.717Z,15.18
2023-01-21T04:45:15.628Z,15.16
2023-01-21T04:47:44.629Z,15.20
2023-01-21T04:50:14.150Z,15.20
2023-01-21T04:52:42.805Z,15.15
2023-01-21T04:55:11.777Z,15.15
2023-01-21T04:57:40.385Z,15.16
2023-01-21T05:00:10.371Z,15.11
2023-01-21T05:02:39.050Z,15.10
2023-01-21T05:05:08.568Z,15.09
2023-01-21T05:07:37.175Z,15.06
2023-01-21T05:10:07.668Z,15.13
2023-01-21T05:12:36.185Z,15.15
2023-01-21T05:15:05.841Z,15.25
2023-01-21T05:17:34.492Z,15.29
2023-01-21T05:20:05.023Z,15.32
2023-01-21T05:22:33.595Z,15.45
2023-01-21T05:25:03.947Z,15.49
2023-01-21T05:27:32.546Z,15.53
2023-01-21T05:30:02.452Z,15.64
2023-01-21T05:32:30.968Z,15.77
2023-01-21T05:34:59.835Z,15.76
2023-01-21T05:37:28.349Z,15.89
2023-01-21T05:39:58.365Z,15.99
2023-01-21T05:42:26.915Z,16.06
2023-01-21T05:44:55.896Z,16.16
2023-01-21T05:47:24.525Z,16.21
2023-01-21T05:49:53.584Z,16.24
2023-01-21T05:52:22.138Z,16.29
2023-01-21T05:55:01.438Z,16.39
2023-01-21T05:57:31.308Z,16.39
2023-01-21T06:00:00.214Z,16.49
2023-01-21T06:02:28.748Z,16.55
2023-01-21T06:04:57.666Z,16.63
2023-01-21T06:07:26.201Z,16.62
2023-01-21T06:09:55.096Z,16.75
2023-01-21T06:12:24.829Z,16.72
2023-01-21T06:14:54.108Z,16.83
2023-01-21T06:17:22.649Z,16.87
2023-01-21T06:19:51.444Z,16.80
2023-01-21T06:22:20.020Z,16.81
2023-01-21T06:24:48.868Z,16.98
2023-01-21T06:27:17.348Z,17.08
2023-01-21T06:29:46.186Z,17.13
2023-01-21T06:32:14.633Z,17.07
2023-01-21T06:34:45.793Z,17.16
2023-01-21T06:37:15.093Z,17.28
2023-01-21T06:39:45.192Z,17.27
2023-01-21T06:42:13.650Z,17.37
2023-01-21T06:44:42.467Z,17.35
2023-01-21T06:47:11.055Z,17.30
2023-01-21T06:49:39.964Z,17.40
2023-01-21T06:52:08.828Z,17.36
2023-01-21T06:54:37.717Z,17.30
2023-01-21T06:57:06.242Z,17.07
2023-01-21T06:59:35.063Z,17.07
2023-01-21T07:02:03.676Z,17.02
2023-01-21T07:04:32.513Z,16.96
2023-01-21T07:07:01.055Z,16.97
2023-01-21T07:09:29.898Z,16.91
2023-01-21T07:11:58.856Z,16.90
2023-01-21T07:14:27.649Z,16.77
2023-01-21T07:16:56.956Z,16.67
2023-01-21T07:19:26.937Z,16.63
2023-01-21T07:21:55.534Z,16.64
2023-01-21T07:24:25.507Z,16.62
2023-01-21T07:26:53.967Z,16.49
2023-01-21T07:29:23.525Z,16.48
2023-01-21T07:31:52.158Z,16.40
2023-01-21T07:34:21.105Z,16.35
2023-01-21T07:36:49.605Z,16.34
2023-01-21T07:39:18.438Z,16.30
2023-01-21T07:41:46.928Z,16.22
2023-01-21T07:44:15.706Z,16.19
2023-01-21T07:46:44.211Z,16.12
2023-01-21T07:49:17.498Z,16.09
2023-01-21T07:51:46.246Z,16.07
2023-01-21T07:54:15.372Z,16.00
2023-01-21T07:56:43.865Z,15.98
2023-01-21T07:59:13.600Z,15.94
2023-01-21T08:01:42.395Z,15.90
2023-01-21T08:04:11.236Z,15.88
2023-01-21T08:06:42.040Z,15.83
2023-01-21T08:09:11.129Z,15.79
2023-01-21T08:11:39.620Z,15.77
2023-01-21T08:14:08.405Z,15.74
2023-01-21T08:16:36.921Z,15.70
2023-01-21T08:19:05.725Z,15.67
2023-01-21T08:21:34.225Z,15.64
2023-01-21T08:24:03.243Z,15.59
2023-01-21T08:26:31.656Z,15.57
2023-01-21T08:29:01.007Z,15.54
2023-01-21T08:31:29.782Z,15.52
2023-01-21T08:34:13.272Z,15.50
2023-01-21T08:36:42.365Z,15.48
2023-01-21T08:39:12.914Z,15.46
2023-01-21T08:41:41.748Z,15.48
2023-01-21T08:44:10.476Z,15.50
2023-01-21T08:46:39.239Z,15.56
2023-01-21T08:49:07.941Z,15.65
2023-01-21T08:51:36.768Z,15.68
2023-01-21T08:54:08.874Z,15.79
2023-01-21T08:56:38.923Z,15.82
2023-01-21T08:59:07.388Z,15.89
2023-01-21T09:01:41.178Z,15.94
2023-01-21T09:04:10.403Z,16.11
2023-01-21T09:06:39.385Z,16.14
2023-01-21T09:09:10.225Z,16.25
2023-01-21T09:11:39.259Z,16.25
2023-01-21T09:14:07.956Z,15.75
2023-01-21T09:16:37.434Z,14.50
2023-01-21T09:19:06.252Z,13.89
2023-01-21T09:21:35.257Z,13.64
2023-01-21T09:24:04.127Z,13.47
2023-01-21T09:26:33.253Z,13.35
2023-01-21T09:29:02.365Z,13.36
2023-01-21T09:31:31.992Z,13.21
2023-01-21T09:34:02.623Z,13.43
2023-01-21T09:36:33.115Z,13.21
2023-01-21T09:39:01.940Z,13.28
2023-01-21T09:41:59.054Z,12.99
2023-01-21T09:44:40.427Z,12.76
2023-01-21T09:47:23.228Z,12.94
2023-01-21T09:50:11.140Z,13.18
2023-01-21T09:52:40.932Z,13.27
2023-01-21T09:55:19.877Z,13.36
2023-01-21T09:58:13.606Z,13.41
2023-01-21T10:00:54.128Z,13.34
2023-01-21T10:03:37.691Z,13.31
2023-01-21T10:06:20.660Z,13.52
2023-01-21T10:09:20.402Z,13.46
2023-01-21T10:12:25.713Z,13.33
2023-01-21T10:15:44.170Z,13.35
2023-01-21T10:18:20.439Z,13.49
2023-01-21T10:21:05.742Z,13.51
2023-01-21T10:24:03.359Z,13.43
2023-01-21T10:26:33.233Z,13.47
2023-01-21T10:29:01.968Z,13.16
2023-01-21T10:31:36.236Z,13.38
2023-01-21T10:34:18.852Z,13.71
2023-01-21T10:37:07.677Z,13.54
2023-01-21T10:39:48.700Z,13.33
2023-01-21T10:42:43.979Z,14.09
2023-01-21T10:45:21.495Z,14.95
2023-01-21T10:47:53.110Z,15.55
2023-01-21T10:50:59.150Z,15.96
2023-01-21T10:53:36.907Z,16.30
2023-01-21T10:56:53.042Z,16.53
2023-01-21T10:59:24.378Z,16.71
2023-01-21T11:02:13.809Z,15.84
2023-01-21T11:04:42.526Z,14.83
2023-01-21T11:07:13.707Z,14.57
2023-01-21T11:09:45.541Z,15.04
2023-01-21T11:12:18.361Z,15.45
2023-01-21T11:14:57.132Z,15.37
2023-01-21T11:17:34.633Z,15.24
2023-01-21T11:20:26.539Z,15.38
2023-01-21T11:22:55.003Z,15.15
2023-01-21T11:25:54.680Z,15.10
2023-01-21T11:28:27.959Z,14.73
2023-01-21T11:31:31.637Z,14.89
2023-01-21T11:34:17.601Z,14.61
2023-01-21T11:36:56.590Z,14.60
2023-01-21T11:39:26.851Z,15.14
2023-01-21T11:42:04.924Z,15.67
2023-01-21T11:44:34.106Z,15.89
2023-01-21T11:47:03.258Z,16.04
2023-01-21T11:49:33.251Z,16.21
2023-01-21T11:52:17.493Z,16.31
2023-01-21T11:54:46.674Z,16.29
2023-01-21T11:57:32.209Z,16.35
2023-01-21T12:00:17.632Z,16.41
2023-01-21T12:03:00.131Z,16.38
2023-01-21T12:05:37.575Z,16.36
2023-01-21T12:08:06.679Z,16.33
2023-01-21T12:10:46.314Z,16.31
2023-01-21T12:13:49.581Z,16.30
2023-01-21T12:16:52.083Z,16.30
2023-01-21T12:19:45.670Z,16.25
2023-01-21T12:22:39.034Z,16.19
2023-01-21T12:25:57.290Z,16.18
2023-01-21T12:28:50.933Z,16.17
2023-01-21T12:31:33.068Z,16.17
2023-01-21T12:34:04.618Z,16.19
2023-01-21T12:36:47.113Z,16.12
2023-01-21T12:39:28.939Z,15.98
2023-01-21T12:42:13.237Z,16.10
2023-01-21T12:44:52.685Z,16.04
2023-01-21T12:47:47.008Z,15.98
2023-01-21T12:50:41.333Z,15.93
2023-01-21T12:53:09.969Z,15.91
2023-01-21T12:56:19.750Z,15.95
2023-01-21T12:59:45.978Z,15.78
2023-01-21T13:02:41.411Z,15.70
2023-01-21T13:05:19.419Z,15.74
2023-01-21T13:08:18.953Z,15.72
2023-01-21T13:10:55.588Z,15.68
2023-01-21T13:13:32.444Z,15.67
2023-01-21T13:16:06.310Z,15.61
2023-01-21T13:18:38.221Z,15.60
2023-01-21T13:21:42.419Z,15.59
2023-01-21T13:24:25.420Z,15.55
2023-01-21T13:27:13.147Z,15.59
2023-01-21T13:30:08.184Z,15.58
2023-01-21T13:33:29.238Z,15.58
2023-01-21T13:36:10.716Z,15.54
2023-01-21T13:39:10.759Z,15.46
2023-01-21T13:42:06.918Z,15.49
2023-01-21T13:44:54.750Z,15.46
2023-01-21T13:47:52.231Z,15.41
2023-01-21T13:50:46.716Z,15.42
2023-01-21T13:53:31.073Z,15.37
2023-01-21T13:56:39.744Z,15.39
2023-01-21T13:59:16.016Z,15.44
2023-01-21T14:02:22.874Z,15.50
2023-01-21T14:05:22.981Z,15.59
2023-01-21T14:08:16.030Z,15.65
2023-01-21T14:10:52.129Z,15.74
2023-01-21T14:13:35.730Z,15.75
2023-01-21T14:16:22.693Z,15.91
2023-01-21T14:19:24.095Z,15.98
2023-01-21T14:22:18.571Z,15.91
2023-01-21T14:25:34.403Z,15.84
2023-01-21T14:28:35.597Z,15.95
2023-01-21T14:31:41.563Z,15.98
2023-01-21T14:34:26.600Z,15.97
2023-01-21T14:37:15.907Z,15.97
2023-01-21T14:40:29.539Z,15.96
2023-01-21T14:43:00.454Z,15.89
2023-01-21T14:45:51.560Z,15.93
2023-01-21T14:48:40.643Z,15.88
2023-01-21T14:51:11.355Z,15.84
2023-01-21T14:53:50.228Z,15.79
2023-01-21T14:56:32.559Z,15.75
2023-01-21T14:59:24.829Z,15.74
2023-01-21T15:02:01.864Z,15.75
2023-01-21T15:04:37.609Z,15.68
2023-01-21T15:07:17.830Z,15.71
2023-01-21T15:09:55.235Z,15.70
2023-01-21T15:12:32.800Z,15.72
2023-01-21T15:15:25.076Z,15.74
2023-01-21T15:17:59.708Z,15.88
2023-01-21T15:20:50.847Z,15.87
2023-01-21T15:23:36.378Z,15.96
2023-01-21T15:26:08.540Z,16.03
2023-01-21T15:28:49.626Z,16.12
2023-01-21T15:31:21.459Z,16.24
2023-01-21T15:34:04.579Z,16.35
2023-01-21T15:36:44.447Z,16.35
2023-01-21T15:39:24.767Z,16.39
2023-01-21T15:42:26.700Z,16.36
2023-01-21T15:45:21.339Z,16.34
2023-01-21T15:48:41.862Z,16.30
2023-01-21T15:51:40.780Z,16.29
2023-01-21T15:54:31.443Z,16.29
2023-01-21T15:57:38.257Z,16.23
2023-01-21T16:00:38.660Z,16.12
2023-01-21T16:03:24.172Z,16.12
2023-01-21T16:06:27.868Z,16.08
2023-01-21T16:09:06.094Z,16.16
2023-01-21T16:11:34.863Z,16.29
2023-01-21T16:14:52.800Z,16.30
2023-01-21T16:18:07.600Z,16.47
2023-01-21T16:20:35.938Z,16.59
2023-01-21T16:23:06.290Z,16.61
2023-01-21T16:25:34.918Z,16.67
2023-01-21T16:28:03.854Z,16.76
2023-01-21T16:30:32.454Z,16.81
2023-01-21T16:33:27.721Z,16.87
2023-01-21T16:35:57.629Z,16.95
2023-01-21T16:38:28.239Z,17.01
2023-01-21T16:41:24.135Z,17.13
2023-01-21T16:44:06.058Z,17.27
2023-01-21T16:46:38.735Z,17.19
2023-01-21T16:49:14.584Z,17.21
2023-01-21T16:51:50.943Z,17.29
2023-01-21T16:54:33.236Z,17.43
2023-01-21T16:57:03.365Z,17.44
2023-01-21T16:59:42.006Z,17.49
2023-01-21T17:02:19.123Z,17.49
2023-01-21T17:04:48.377Z,17.56
2023-01-21T17:07:21.965Z,17.66
2023-01-21T17:09:57.214Z,17.66
2023-01-21T17:12:26.618Z,17.74
2023-01-21T17:15:04.358Z,17.75
2023-01-21T17:17:34.489Z,17.82
2023-01-21T17:20:05.274Z,17.82
2023-01-21T17:22:35.089Z,17.83
2023-01-21T17:25:21.982Z,17.92
2023-01-21T17:27:50.678Z,17.91
2023-01-21T17:30:25.360Z,18.02
2023-01-21T17:32:55.668Z,18.13
2023-01-21T17:35:25.502Z,18.24
2023-01-21T17:38:05.510Z,18.23
2023-01-21T17:40:41.695Z,18.23
2023-01-21T17:43:14.960Z,18.27
2023-01-21T17:45:45.248Z,18.44
2023-01-21T17:48:33.186Z,18.42
2023-01-21T17:51:06.148Z,18.47
2023-01-21T17:53:38.138Z,18.50
2023-01-21T17:56:13.140Z,18.50
2023-01-21T17:58:46.122Z,18.44
2023-01-21T18:01:16.596Z,18.37
2023-01-21T18:03:45.623Z,18.41
2023-01-21T18:06:20.048Z,18.31
2023-01-21T18:08:50.643Z,18.22
2023-01-21T18:11:20.357Z,18.15
2023-01-21T18:13:49.296Z,18.01
2023-01-21T18:16:18.277Z,17.90
2023-01-21T18:18:47.267Z,17.83
2023-01-21T18:21:19.968Z,17.83
2023-01-21T18:23:49.102Z,17.67
2023-01-21T18:26:31.721Z,17.69
2023-01-21T18:29:00.430Z,17.66
2023-01-21T18:31:29.496Z,17.71
2023-01-21T18:33:58.293Z,17.74
2023-01-21T18:36:27.260Z,17.71
2023-01-21T18:38:57.187Z,17.80
2023-01-21T18:41:30.331Z,17.88
2023-01-21T18:43:59.207Z,17.94
2023-01-21T18:46:28.806Z,17.93
2023-01-21T18:48:57.443Z,17.99
2023-01-21T18:51:26.767Z,18.05
2023-01-21T18:53:55.545Z,18.10
2023-01-21T18:56:24.495Z,18.20
2023-01-21T18:58:53.750Z,18.24
2023-01-21T19:01:24.094Z,18.17
2023-01-21T19:03:55.160Z,18.16
2023-01-21T19:06:24.858Z,18.18
2023-01-21T19:08:55.495Z,18.14
2023-01-21T19:11:24.536Z,18.12
2023-01-21T19:13:53.324Z,18.00
2023-01-21T19:16:22.582Z,17.94
2023-01-21T19:18:51.332Z,17.87
2023-01-21T19:21:21.432Z,17.82
2023-01-21T19:23:50.083Z,17.78
2023-01-21T19:26:19.022Z,17.77
2023-01-21T19:28:48.020Z,17.72
2023-01-21T19:31:17.327Z,17.64
2023-01-21T19:33:47.338Z,17.57
2023-01-21T19:36:17.748Z,17.51
2023-01-21T19:38:55.083Z,17.49
2023-01-21T19:41:24.332Z,17.48
2023-01-21T19:43:53.011Z,17.55
2023-01-21T19:46:24.088Z,17.58
2023-01-21T19:48:53.913Z,17.63
2023-01-21T19:51:23.049Z,17.66
2023-01-21T19:53:51.656Z,17.75
2023-01-21T19:56:23.477Z,17.82
2023-01-21T19:58:51.860Z,17.87
2023-01-21T20:01:20.938Z,18.00
2023-01-21T20:03:59.653Z,18.05
2023-01-21T20:06:35.214Z,17.98
2023-01-21T20:09:04.851Z,18.13
2023-01-21T20:11:34.012Z,18.08
2023-01-21T20:14:02.501Z,18.04
2023-01-21T20:16:31.523Z,18.09
2023-01-21T20:19:02.348Z,18.01
2023-01-21T20:21:31.184Z,17.96
2023-01-21T20:23:59.643Z,17.85
2023-01-21T20:26:28.860Z,17.76
2023-01-21T20:29:00.679Z,17.73
2023-01-21T20:31:30.539Z,17.73
2023-01-21T20:33:58.951Z,17.65
2023-01-21T20:36:27.788Z,17.60
2023-01-21T20:38:56.260Z,17.56
2023-01-21T20:41:29.124Z,17.47
2023-01-21T20:43:58.062Z,17.49
2023-01-21T20:46:28.887Z,17.43
2023-01-21T20:48:57.737Z,17.43
2023-01-21T20:51:28.064Z,17.45
2023-01-21T20:53:56.747Z,17.41
2023-01-21T20:56:27.048Z,17.53
2023-01-21T20:58:55.720Z,17.57
2023-01-21T21:01:25.576Z,17.63
2023-01-21T21:03:54.207Z,17.65
2023-01-21T21:06:29.361Z,17.74
2023-01-21T21:08:58.051Z,17.82
2023-01-21T21:11:27.015Z,17.80
2023-01-21T21:13:56.243Z,17.91
2023-01-21T21:16:28.862Z,18.04
2023-01-21T21:18:57.550Z,18.01
2023-01-21T21:21:26.449Z,18.00
2023-01-21T21:23:55.035Z,18.02
2023-01-21T21:26:26.383Z,17.93
2023-01-21T21:28:55.631Z,17.84
2023-01-21T21:31:25.144Z,17.89
2023-01-21T21:33:53.937Z,17.87
2023-01-21T21:36:23.736Z,17.86
2023-01-21T21:38:56.132Z,17.80
2023-01-21T21:41:44.472Z,17.74
2023-01-21T21:44:13.514Z,17.63
2023-01-21T21:47:00.832Z,17.60
2023-01-21T21:49:31.306Z,17.57
2023-01-21T21:52:02.645Z,17.54
2023-01-21T21:54:31.483Z,17.47
2023-01-21T21:56:59.883Z,17.35
2023-01-21T21:59:28.580Z,17.35
2023-01-21T22:01:57.083Z,17.40
2023-01-21T22:04:25.834Z,17.43
2023-01-21T22:06:54.282Z,17.43
2023-01-21T22:09:23.086Z,17.43
2023-01-21T22:11:51.504Z,17.36
2023-01-21T22:14:20.254Z,17.35
2023-01-21T22:16:50.147Z,17.30
2023-01-21T22:19:20.459Z,17.25
2023-01-21T22:21:49.126Z,17.25
2023-01-21T22:24:18.107Z,17.22
2023-01-21T22:26:46.789Z,17.16
2023-01-21T22:29:15.725Z,17.10
2023-01-21T22:31:44.513Z,17.06
2023-01-21T22:34:13.638Z,17.04
2023-01-21T22:36:47.196Z,16.99
2023-01-21T22:39:17.181Z,16.94
2023-01-21T22:41:45.833Z,16.91
2023-01-21T22:44:14.800Z,16.88
2023-01-21T22:46:43.497Z,16.83
2023-01-21T22:49:12.618Z,16.80
2023-01-21T22:51:41.237Z,16.77
2023-01-21T22:54:10.793Z,16.75
2023-01-21T22:56:52.215Z,16.70
2023-01-21T22:59:22.235Z,16.67
2023-01-21T23:01:51.447Z,16.62
2023-01-21T23:04:20.480Z,16.59
2023-01-21T23:06:51.362Z,16.57
2023-01-21T23:09:20.310Z,16.54
2023-01-21T23:11:48.943Z,16.51
2023-01-21T23:14:17.982Z,16.49
2023-01-21T23:16:46.893Z,16.47
2023-01-21T23:19:16.539Z,16.43
2023-01-21T23:21:46.112Z,16.39
2023-01-21T23:24:15.149Z,16.36
2023-01-21T23:26:43.799Z,16.33
2023-01-21T23:29:12.781Z,16.31
2023-01-21T23:31:41.524Z,16.30
2023-01-21T23:34:13.589Z,16.27
2023-01-21T23:36:42.319Z,16.24
2023-01-21T23:39:11.569Z,16.22
2023-01-21T23:41:40.306Z,16.19
2023-01-21T23:44:10.759Z,16.16
2023-01-21T23:46:39.847Z,16.14
2023-01-21T23:49:09.633Z,16.11
2023-01-21T23:51:38.149Z,16.09
2023-01-21T23:54:06.881Z,16.02
2023-01-21T23:56:35.390Z,16.04
2023-01-21T23:59:04.138Z,16.00
